createdAt,value
2022-08-23T00:01:53.274Z,99.90
2022-08-23T00:04:32.134Z,99.90
2022-08-23T00:07:05.430Z,99.90
2022-08-23T00:09:32.542Z,99.90
2022-08-23T00:12:15.493Z,99.90
2022-08-23T00:14:52.698Z,99.90
2022-08-23T00:17:31.120Z,99.90
2022-08-23T00:20:09.518Z,99.90
2022-08-23T00:22:38.207Z,99.90
2022-08-23T00:25:11.253Z,99.90
2022-08-23T00:27:40.025Z,99.90
2022-08-23T00:30:12.230Z,99.90
2022-08-23T00:32:41.445Z,99.90
2022-08-23T00:35:12.763Z,99.90
2022-08-23T00:38:30.377Z,99.90
2022-08-23T00:40:37.474Z,99.90
2022-08-23T00:43:33.086Z,99.90
2022-08-23T00:47:03.821Z,99.90
2022-08-23T00:49:35.767Z,99.90
2022-08-23T00:52:38.469Z,99.90
2022-08-23T00:55:06.316Z,99.90
2022-08-23T00:57:37.076Z,99.90
2022-08-23T01:00:10.400Z,99.90
2022-08-23T01:02:38.621Z,99.90
2022-08-23T01:05:07.478Z,99.90
2022-08-23T01:07:46.839Z,99.90
2022-08-23T01:10:36.458Z,99.90
2022-08-23T01:13:51.798Z,99.90
2022-08-23T01:16:36.159Z,99.90
2022-08-23T01:19:14.291Z,99.90
2022-08-23T01:22:09.174Z,99.90
2022-08-23T01:25:07.720Z,99.90
2022-08-23T01:27:25.956Z,99.90
2022-08-23T01:29:52.846Z,99.90
2022-08-23T01:32:20.670Z,99.90
2022-08-23T01:34:51.584Z,99.90
2022-08-23T01:37:21.055Z,99.90
2022-08-23T01:39:48.046Z,99.90
2022-08-23T01:42:15.211Z,99.90
2022-08-23T01:44:42.203Z,99.90
2022-08-23T01:47:09.194Z,99.90
2022-08-23T01:49:36.098Z,99.90
2022-08-23T01:52:03.979Z,99.90
2022-08-23T01:54:31.050Z,99.90
2022-08-23T01:56:58.859Z,99.90
2022-08-23T01:59:26.287Z,99.90
2022-08-23T02:01:53.559Z,99.90
2022-08-23T02:04:22.248Z,99.90
2022-08-23T02:06:49.723Z,99.90
2022-08-23T02:09:18.060Z,99.90
2022-08-23T02:11:47.284Z,99.90
2022-08-23T02:14:20.295Z,99.90
2022-08-23T02:17:03.644Z,99.90
2022-08-23T02:19:34.962Z,99.90
2022-08-23T02:22:03.282Z,99.90
2022-08-23T02:24:31.436Z,99.90
2022-08-23T02:27:05.019Z,99.90
2022-08-23T02:29:39.141Z,99.90
2022-08-23T02:32:07.500Z,99.90
2022-08-23T02:34:37.224Z,99.90
2022-08-23T02:37:06.912Z,99.90
2022-08-23T02:39:34.455Z,99.90
2022-08-23T02:42:02.256Z,99.90
2022-08-23T02:44:30.018Z,99.90
2022-08-23T02:46:57.448Z,99.90
2022-08-23T02:49:24.489Z,99.90
2022-08-23T02:51:51.521Z,99.90
2022-08-23T02:54:18.464Z,99.90
2022-08-23T02:56:45.472Z,99.90
2022-08-23T02:59:13.343Z,99.90
2022-08-23T03:01:40.778Z,99.90
2022-08-23T03:04:10.420Z,99.90
2022-08-23T03:06:39.141Z,99.90
2022-08-23T03:09:08.832Z,99.90
2022-08-23T03:11:36.213Z,99.90
2022-08-23T03:14:03.505Z,99.90
2022-08-23T03:16:30.857Z,99.90
2022-08-23T03:18:57.881Z,99.90
2022-08-23T03:21:24.873Z,99.90
2022-08-23T03:23:51.874Z,99.90
2022-08-23T03:26:19.591Z,99.90
2022-08-23T03:28:47.626Z,99.90
2022-08-23T03:31:16.167Z,99.90
2022-08-23T03:33:43.625Z,99.90
2022-08-23T03:36:13.114Z,99.90
2022-08-23T03:38:42.282Z,99.90
2022-08-23T03:41:10.314Z,99.90
2022-08-23T03:43:39.499Z,99.90
2022-08-23T03:46:08.081Z,99.90
2022-08-23T03:48:35.571Z,99.90
2022-08-23T03:51:02.522Z,99.90
2022-08-23T03:53:29.559Z,99.90
2022-08-23T03:55:57.058Z,99.90
2022-08-23T03:58:25.839Z,99.90
2022-08-23T04:00:52.875Z,99.90
2022-08-23T04:03:19.874Z,99.90
2022-08-23T04:05:47.048Z,99.90
2022-08-23T04:08:14.178Z,99.90
2022-08-23T04:10:45.262Z,99.90
2022-08-23T04:13:12.187Z,99.90
2022-08-23T04:15:39.639Z,99.90
2022-08-23T04:18:10.624Z,99.90
2022-08-23T04:20:37.919Z,99.90
2022-08-23T04:23:05.823Z,99.90
2022-08-23T04:25:35.555Z,99.90
2022-08-23T04:28:04.267Z,99.90
2022-08-23T04:30:33.299Z,99.90
2022-08-23T04:33:01.696Z,99.90
2022-08-23T04:35:29.716Z,99.90
2022-08-23T04:37:56.883Z,99.90
2022-08-23T04:40:42.335Z,99.90
2022-08-23T04:43:09.592Z,99.90
2022-08-23T04:45:41.783Z,99.90
2022-08-23T04:48:10.471Z,99.90
2022-08-23T04:50:40.484Z,99.90
2022-08-23T04:53:08.483Z,99.90
2022-08-23T04:55:36.461Z,99.90
2022-08-23T04:58:05.211Z,99.90
2022-08-23T05:00:32.545Z,99.90
2022-08-23T05:03:00.010Z,99.90
2022-08-23T05:05:27.669Z,99.90
2022-08-23T05:07:55.500Z,99.90
2022-08-23T05:10:22.984Z,99.90
2022-08-23T05:12:49.892Z,99.90
2022-08-23T05:15:17.017Z,99.90
2022-08-23T05:17:44.592Z,99.90
2022-08-23T05:20:11.804Z,99.90
2022-08-23T05:22:41.947Z,99.90
2022-08-23T05:25:10.400Z,99.90
2022-08-23T05:27:38.092Z,99.90
2022-08-23T05:30:07.909Z,99.90
2022-08-23T05:32:41.499Z,99.90
2022-08-23T05:35:09.225Z,99.90
2022-08-23T05:37:36.144Z,99.90
2022-08-23T05:40:04.490Z,99.90
2022-08-23T05:42:31.441Z,99.90
2022-08-23T05:44:58.301Z,99.90
2022-08-23T05:47:27.914Z,99.90
2022-08-23T05:49:54.813Z,99.90
2022-08-23T05:52:21.700Z,99.90
2022-08-23T05:54:48.586Z,99.90
2022-08-23T05:57:15.657Z,99.90
2022-08-23T05:59:43.081Z,99.90
2022-08-23T06:02:10.503Z,99.90
2022-08-23T06:04:37.469Z,99.90
2022-08-23T06:07:05.918Z,99.90
2022-08-23T06:09:33.178Z,99.90
2022-08-23T06:12:00.172Z,99.90
2022-08-23T06:14:27.767Z,99.90
2022-08-23T06:16:56.277Z,99.90
2022-08-23T06:19:24.308Z,99.90
2022-08-23T06:21:52.665Z,99.90
2022-08-23T06:24:20.773Z,99.90
2022-08-23T06:26:48.009Z,99.90
2022-08-23T06:29:19.947Z,99.90
2022-08-23T06:31:51.747Z,99.90
2022-08-23T06:34:38.717Z,99.90
2022-08-23T06:37:14.874Z,99.90
2022-08-23T06:39:42.310Z,99.90
2022-08-23T06:42:38.109Z,99.90
2022-08-23T06:45:06.387Z,99.90
2022-08-23T06:47:33.322Z,99.90
2022-08-23T06:50:00.310Z,99.90
2022-08-23T06:52:28.242Z,99.90
2022-08-23T06:54:55.809Z,99.90
2022-08-23T06:57:24.707Z,99.90
2022-08-23T06:59:51.602Z,98.70
2022-08-23T07:02:18.594Z,98.90
2022-08-23T07:04:45.686Z,97.80
2022-08-23T07:07:13.003Z,96.30
2022-08-23T07:09:41.516Z,95.10
2022-08-23T07:12:09.086Z,94.20
2022-08-23T07:14:37.738Z,92.80
2022-08-23T07:17:05.370Z,91.30
2022-08-23T07:19:36.098Z,91.20
2022-08-23T07:22:06.191Z,90.40
2022-08-23T07:24:34.066Z,88.90
2022-08-23T07:27:09.566Z,88.50
2022-08-23T07:29:39.673Z,87.50
2022-08-23T07:32:09.110Z,87.50
2022-08-23T07:34:36.833Z,87.10
2022-08-23T07:37:15.187Z,85.90
2022-08-23T07:39:43.710Z,85.80
2022-08-23T07:42:22.715Z,83.70
2022-08-23T07:44:52.791Z,80.80
2022-08-23T07:47:22.007Z,78.90
2022-08-23T07:49:49.086Z,76.90
2022-08-23T07:52:15.983Z,75.60
2022-08-23T07:54:45.860Z,76.60
2022-08-23T07:57:17.275Z,75.70
2022-08-23T07:59:44.153Z,75.10
2022-08-23T08:03:54.639Z,71.20
2022-08-23T08:06:41.959Z,69.30
2022-08-23T08:09:11.191Z,70.30
2022-08-23T08:11:47.223Z,69.00
2022-08-23T08:14:17.051Z,68.40
2022-08-23T08:16:49.383Z,67.20
2022-08-23T08:19:19.982Z,65.50
2022-08-23T08:21:48.375Z,64.50
2022-08-23T08:24:19.300Z,62.80
2022-08-23T08:26:47.539Z,63.20
2022-08-23T08:29:15.283Z,63.50
2022-08-23T08:31:50.302Z,63.20
2022-08-23T08:34:20.156Z,61.00
2022-08-23T08:36:58.551Z,61.80
2022-08-23T08:39:32.057Z,61.20
2022-08-23T08:42:40.372Z,58.90
2022-08-23T08:45:18.868Z,56.90
2022-08-23T08:48:13.407Z,57.90
2022-08-23T08:50:52.094Z,58.40
2022-08-23T08:53:41.509Z,57.40
2022-08-23T08:56:29.824Z,56.10
2022-08-23T08:59:11.936Z,56.50
2022-08-23T09:01:39.391Z,56.00
2022-08-23T09:04:07.504Z,53.70
2022-08-23T09:07:25.961Z,51.60
2022-08-23T09:10:14.685Z,50.70
2022-08-23T09:13:45.875Z,50.00
2022-08-23T09:17:12.730Z,48.70
2022-08-23T09:19:41.233Z,47.40
2022-08-23T09:22:35.613Z,46.90
2022-08-23T09:25:10.246Z,45.80
2022-08-23T09:27:45.665Z,46.50
2022-08-23T09:30:18.930Z,45.40
2022-08-23T09:32:50.179Z,43.90
2022-08-23T09:35:26.389Z,42.60
2022-08-23T09:38:20.153Z,40.70
2022-08-23T09:40:51.287Z,40.90
2022-08-23T09:43:27.900Z,40.10
2022-08-23T09:45:56.861Z,39.60
2022-08-23T09:48:45.601Z,38.70
2022-08-23T09:51:49.777Z,37.80
2022-08-23T09:54:36.505Z,36.30
2022-08-23T09:57:11.018Z,37.50
2022-08-23T09:59:51.723Z,36.40
2022-08-23T10:02:35.333Z,36.20
2022-08-23T10:05:20.120Z,35.90
2022-08-23T10:08:25.503Z,35.60
2022-08-23T10:11:16.958Z,34.00
2022-08-23T10:13:44.591Z,33.30
2022-08-23T10:16:40.946Z,32.10
2022-08-23T10:19:54.353Z,32.40
2022-08-23T10:22:27.489Z,32.20
2022-08-23T10:25:19.202Z,31.00
2022-08-23T10:28:49.694Z,31.90
2022-08-23T10:32:05.494Z,33.30
2022-08-23T10:35:15.254Z,33.20
2022-08-23T10:38:32.874Z,32.80
2022-08-23T10:41:50.271Z,33.10
2022-08-23T10:44:49.650Z,34.00
2022-08-23T10:47:39.182Z,32.00
2022-08-23T10:50:21.978Z,33.80
2022-08-23T10:53:02.042Z,34.30
2022-08-23T10:56:07.526Z,33.30
2022-08-23T10:58:58.235Z,32.80
2022-08-23T11:01:39.712Z,35.70
2022-08-23T11:04:20.015Z,34.20
2022-08-23T11:06:55.763Z,34.20
2022-08-23T11:09:22.578Z,34.50
2022-08-23T11:12:21.772Z,33.80
2022-08-23T11:15:19.952Z,33.90
2022-08-23T11:17:49.655Z,34.30
2022-08-23T11:20:57.383Z,33.70
2022-08-23T11:24:06.687Z,32.50
2022-08-23T11:26:46.273Z,31.50
2022-08-23T11:29:38.997Z,31.00
2022-08-23T11:32:52.175Z,31.70
2022-08-23T11:36:12.788Z,31.80
2022-08-23T11:38:52.899Z,31.70
2022-08-23T11:41:33.535Z,30.90
2022-08-23T11:44:07.699Z,30.60
2022-08-23T11:47:10.431Z,31.00
2022-08-23T11:50:35.148Z,30.00
2022-08-23T11:54:00.395Z,32.30
2022-08-23T11:57:35.460Z,32.30
2022-08-23T12:01:08.975Z,32.20
2022-08-23T12:04:10.712Z,31.20
2022-08-23T12:06:52.952Z,30.20
2022-08-23T12:09:23.137Z,31.40
2022-08-23T12:11:56.088Z,31.20
2022-08-23T12:14:31.996Z,30.80
2022-08-23T12:17:26.403Z,30.60
2022-08-23T12:20:21.957Z,29.60
2022-08-23T12:23:14.488Z,29.80
2022-08-23T12:25:42.992Z,30.40
2022-08-23T12:28:39.305Z,30.10
2022-08-23T12:31:55.956Z,29.90
2022-08-23T12:34:47.553Z,30.10
2022-08-23T12:37:43.447Z,30.30
2022-08-23T12:40:29.826Z,31.80
2022-08-23T12:43:11.798Z,31.70
2022-08-23T12:45:54.673Z,32.40
2022-08-23T12:48:29.555Z,29.80
2022-08-23T12:51:11.306Z,30.00
2022-08-23T12:53:45.712Z,30.00
2022-08-23T12:56:32.044Z,29.70
2022-08-23T12:59:07.261Z,29.80
2022-08-23T13:01:39.182Z,29.50
2022-08-23T13:04:16.281Z,29.30
2022-08-23T13:07:04.373Z,28.80
2022-08-23T13:09:39.079Z,28.60
2022-08-23T13:12:10.289Z,28.30
2022-08-23T13:14:53.777Z,29.00
2022-08-23T13:17:26.057Z,28.70
2022-08-23T13:20:16.793Z,29.40
2022-08-23T13:23:00.485Z,29.30
2022-08-23T13:25:39.196Z,29.60
2022-08-23T13:28:29.145Z,29.90
2022-08-23T13:31:08.507Z,29.90
2022-08-23T13:33:37.117Z,29.70
2022-08-23T13:36:19.049Z,29.20
2022-08-23T13:38:49.845Z,29.00
2022-08-23T13:41:38.504Z,28.20
2022-08-23T13:44:09.546Z,28.70
2022-08-23T13:46:47.908Z,29.10
2022-08-23T13:49:24.629Z,28.50
2022-08-23T13:52:37.985Z,29.50
2022-08-23T13:54:51.274Z,28.90
2022-08-23T13:57:21.806Z,30.00
2022-08-23T13:59:58.697Z,30.70
2022-08-23T14:02:26.538Z,31.30
2022-08-23T14:04:53.807Z,31.30
2022-08-23T14:07:21.192Z,30.30
2022-08-23T14:09:54.806Z,29.30
2022-08-23T14:12:28.533Z,29.30
2022-08-23T14:14:58.101Z,29.10
2022-08-23T14:17:26.342Z,28.60
2022-08-23T14:22:41.212Z,29.30
2022-08-23T14:25:10.691Z,29.50
2022-08-23T14:27:43.115Z,29.40
2022-08-23T14:30:36.007Z,29.50
2022-08-23T14:33:06.356Z,29.10
2022-08-23T14:35:33.480Z,29.90
2022-08-23T14:38:14.193Z,29.20
2022-08-23T14:41:11.839Z,29.70
2022-08-23T14:43:38.741Z,31.60
2022-08-23T14:46:05.988Z,31.80
2022-08-23T14:48:33.570Z,31.20
2022-08-23T14:51:00.515Z,30.60
2022-08-23T14:53:33.898Z,29.90
2022-08-23T14:56:20.545Z,30.20
2022-08-23T14:58:50.203Z,30.00
2022-08-23T15:01:23.413Z,29.60
2022-08-23T15:03:51.037Z,28.80
2022-08-23T15:06:23.183Z,29.20
2022-08-23T15:08:53.475Z,28.90
2022-08-23T15:14:07.879Z,28.80
2022-08-23T15:16:35.633Z,29.50
2022-08-23T15:19:04.081Z,29.20
2022-08-23T15:21:31.027Z,28.50
2022-08-23T15:23:57.936Z,28.90
2022-08-23T15:26:31.239Z,29.50
2022-08-23T15:29:00.911Z,29.60
2022-08-23T15:31:29.160Z,29.10
2022-08-23T15:33:56.490Z,29.10
2022-08-23T15:36:23.807Z,29.10
2022-08-23T15:38:51.272Z,29.60
2022-08-23T15:41:20.591Z,30.00
2022-08-23T15:43:48.269Z,30.60
2022-08-23T15:46:23.542Z,31.20
2022-08-23T15:49:06.013Z,31.80
2022-08-23T15:51:32.882Z,31.10
2022-08-23T15:53:59.822Z,31.10
2022-08-23T15:56:41.440Z,31.70
2022-08-23T15:59:14.504Z,32.30
2022-08-23T16:01:43.170Z,31.90
2022-08-23T16:04:11.185Z,31.60
2022-08-23T16:06:40.165Z,32.10
2022-08-23T16:09:20.801Z,32.30
2022-08-23T16:11:49.349Z,31.90
2022-08-23T16:14:17.334Z,32.20
2022-08-23T16:16:46.575Z,32.10
2022-08-23T16:19:16.746Z,31.90
2022-08-23T16:21:44.948Z,31.70
2022-08-23T16:24:12.072Z,32.20
2022-08-23T16:26:45.415Z,31.60
2022-08-23T16:29:17.168Z,30.80
2022-08-23T16:31:46.601Z,31.20
2022-08-23T16:34:20.113Z,31.50
2022-08-23T16:36:58.009Z,30.70
2022-08-23T16:39:28.074Z,31.20
2022-08-23T16:41:56.141Z,31.60
2022-08-23T16:44:23.086Z,31.80
2022-08-23T16:46:51.644Z,31.70
2022-08-23T16:49:19.677Z,31.50
2022-08-23T16:51:47.949Z,31.80
2022-08-23T16:54:18.413Z,32.30
2022-08-23T16:56:45.847Z,33.50
2022-08-23T16:59:13.930Z,34.30
2022-08-23T17:02:00.743Z,34.70
2022-08-23T17:04:37.473Z,35.20
2022-08-23T17:07:04.856Z,35.80
2022-08-23T17:09:31.791Z,36.40
2022-08-23T17:11:58.758Z,37.00
2022-08-23T17:14:26.729Z,37.20
2022-08-23T17:16:54.814Z,37.90
2022-08-23T17:19:21.870Z,39.10
2022-08-23T17:21:48.877Z,39.60
2022-08-23T17:24:15.853Z,40.20
2022-08-23T17:26:43.138Z,41.20
2022-08-23T17:29:10.141Z,41.60
2022-08-23T17:31:37.704Z,42.20
2022-08-23T17:34:06.686Z,42.70
2022-08-23T17:36:38.747Z,43.40
2022-08-23T17:39:14.654Z,44.00
2022-08-23T17:41:45.329Z,44.60
2022-08-23T17:44:14.137Z,45.60
2022-08-23T17:46:45.409Z,45.80
2022-08-23T17:49:14.706Z,46.10
2022-08-23T17:51:42.045Z,46.40
2022-08-23T17:54:12.815Z,46.20
2022-08-23T17:56:50.543Z,46.00
2022-08-23T17:59:20.946Z,46.20
2022-08-23T18:01:49.034Z,46.40
2022-08-23T18:04:16.072Z,46.50
2022-08-23T18:06:44.038Z,47.20
2022-08-23T18:09:11.740Z,47.80
2022-08-23T18:11:38.982Z,48.30
2022-08-23T18:14:06.707Z,48.90
2022-08-23T18:16:35.801Z,49.40
2022-08-23T18:19:11.141Z,49.90
2022-08-23T18:21:42.383Z,50.40
2022-08-23T18:24:10.363Z,52.00
2022-08-23T18:26:57.343Z,53.40
2022-08-23T18:29:26.398Z,54.40
2022-08-23T18:31:57.414Z,55.40
2022-08-23T18:34:24.460Z,56.70
2022-08-23T18:36:51.782Z,57.60
2022-08-23T18:39:31.468Z,58.20
2022-08-23T18:42:03.051Z,58.60
2022-08-23T18:44:31.280Z,59.80
2022-08-23T18:47:01.280Z,60.00
2022-08-23T18:49:31.329Z,60.00
2022-08-23T18:51:58.327Z,60.90
2022-08-23T18:54:25.271Z,61.60
2022-08-23T18:56:52.196Z,61.50
2022-08-23T18:59:19.337Z,61.70
2022-08-23T19:01:48.235Z,61.30
2022-08-23T19:04:16.245Z,60.40
2022-08-23T19:06:43.463Z,60.80
2022-08-23T19:09:11.273Z,61.10
2022-08-23T19:11:42.289Z,62.10
2022-08-23T19:14:12.376Z,63.00
2022-08-23T19:16:47.269Z,63.40
2022-08-23T19:19:16.484Z,63.50
2022-08-23T19:21:43.591Z,63.90
2022-08-23T19:24:10.656Z,65.10
2022-08-23T19:26:38.355Z,65.50
2022-08-23T19:29:09.057Z,65.90
2022-08-23T19:31:42.499Z,66.20
2022-08-23T19:34:11.257Z,66.40
2022-08-23T19:36:47.557Z,67.80
2022-08-23T19:39:18.516Z,68.10
2022-08-23T19:41:48.250Z,68.30
2022-08-23T19:44:17.773Z,69.10
2022-08-23T19:46:45.533Z,70.30
2022-08-23T19:49:15.785Z,71.50
2022-08-23T19:51:44.266Z,72.40
2022-08-23T19:54:13.038Z,72.80
2022-08-23T19:56:48.386Z,73.00
2022-08-23T19:59:24.382Z,73.90
2022-08-23T20:01:54.821Z,74.00
2022-08-23T20:04:24.394Z,73.90
2022-08-23T20:06:52.117Z,74.20
2022-08-23T20:09:22.480Z,74.80
2022-08-23T20:11:54.448Z,75.10
2022-08-23T20:14:24.593Z,76.50
2022-08-23T20:16:54.066Z,77.80
2022-08-23T20:19:21.625Z,78.00
2022-08-23T20:21:49.379Z,78.10
2022-08-23T20:24:28.810Z,78.80
2022-08-23T20:27:06.060Z,79.20
2022-08-23T20:29:33.194Z,80.10
2022-08-23T20:32:00.533Z,80.40
2022-08-23T20:34:30.613Z,80.60
2022-08-23T20:36:57.630Z,80.20
2022-08-23T20:39:25.157Z,79.90
2022-08-23T20:41:54.125Z,79.80
2022-08-23T20:44:25.274Z,79.60
2022-08-23T20:46:56.731Z,80.60
2022-08-23T20:49:26.706Z,80.80
2022-08-23T20:51:53.614Z,81.10
2022-08-23T20:54:22.124Z,81.20
2022-08-23T20:56:51.850Z,81.00
2022-08-23T20:59:20.540Z,80.90
2022-08-23T21:01:48.951Z,80.50
2022-08-23T21:04:17.458Z,80.30
2022-08-23T21:06:52.454Z,80.10
2022-08-23T21:09:24.729Z,80.00
2022-08-23T21:11:57.432Z,80.10
2022-08-23T21:14:24.566Z,80.60
2022-08-23T21:16:51.979Z,80.70
2022-08-23T21:19:19.126Z,80.90
2022-08-23T21:21:46.215Z,81.10
2022-08-23T21:24:13.928Z,81.40
2022-08-23T21:26:41.695Z,81.70
2022-08-23T21:29:10.182Z,82.00
2022-08-23T21:31:39.362Z,82.20
2022-08-23T21:34:08.116Z,82.70
2022-08-23T21:36:36.337Z,83.00
2022-08-23T21:39:05.292Z,83.30
2022-08-23T21:41:42.708Z,83.70
2022-08-23T21:44:19.975Z,84.10
2022-08-23T21:46:50.176Z,84.40
2022-08-23T21:49:18.418Z,84.80
2022-08-23T21:51:45.770Z,85.30
2022-08-23T21:54:15.722Z,85.60
2022-08-23T21:56:43.109Z,86.10
2022-08-23T21:59:15.398Z,86.50
2022-08-23T22:01:43.332Z,86.50
2022-08-23T22:04:13.884Z,86.80
2022-08-23T22:06:45.471Z,87.30
2022-08-23T22:09:19.750Z,87.50
2022-08-23T22:11:54.746Z,88.00
2022-08-23T22:14:25.817Z,88.30
2022-08-23T22:16:59.617Z,89.50
2022-08-23T22:19:26.781Z,89.80
2022-08-23T22:21:54.007Z,90.10
2022-08-23T22:24:25.593Z,90.40
2022-08-23T22:26:54.824Z,90.70
2022-08-23T22:29:22.414Z,91.80
2022-08-23T22:31:49.582Z,92.80
2022-08-23T22:34:16.814Z,93.70
2022-08-23T22:36:43.705Z,94.80
2022-08-23T22:39:13.197Z,95.80
2022-08-23T22:41:40.122Z,96.40
2022-08-23T22:44:07.278Z,96.90
2022-08-23T22:46:35.399Z,97.30
2022-08-23T22:49:02.469Z,97.80
2022-08-23T22:51:34.466Z,98.30
2022-08-23T22:54:10.029Z,98.80
2022-08-23T22:56:50.468Z,99.70
2022-08-23T22:59:25.861Z,99.90
2022-08-23T23:02:00.324Z,99.90
2022-08-23T23:04:33.492Z,99.90
2022-08-23T23:07:01.263Z,99.90
2022-08-23T23:09:28.839Z,99.90
2022-08-23T23:11:56.262Z,99.90
2022-08-23T23:14:23.286Z,99.90
2022-08-23T23:16:52.970Z,99.90
2022-08-23T23:19:38.890Z,99.90
2022-08-23T23:22:08.655Z,99.90
2022-08-23T23:24:39.654Z,99.90
2022-08-23T23:27:08.051Z,99.90
2022-08-23T23:29:36.415Z,99.90
2022-08-23T23:32:04.203Z,99.90
2022-08-23T23:34:31.539Z,99.90
2022-08-23T23:36:59.591Z,99.90
2022-08-23T23:39:28.118Z,99.90
2022-08-23T23:41:56.123Z,99.90
2022-08-23T23:44:31.280Z,99.90
2022-08-23T23:47:01.422Z,99.90
2022-08-23T23:49:31.935Z,99.90
2022-08-23T23:52:04.926Z,99.90
2022-08-23T23:54:35.305Z,99.90
2022-08-23T23:57:05.524Z,99.90
2022-08-23T23:59:33.983Z,99.90
